KCXP

Details ICAO KCXP
Name Carson
Region United States
Timezone America/Los_Angeles (UTC-7.0)
Plans Departing 86
Arriving 112
Stats Elevation 4,697 ft / 1,432 m (AMSL)
Location 39.192200° -119.734000°
Runways 1
Magnetic Variation 12.847° E
Sunrise 2022-10-02 13:57:05 UTC / 2022-10-02 06:57:05 Local
Sunset 2022-10-03 01:41:49 UTC / 2022-10-02 18:41:49 Local
Advertisement - Login to hide

Runways

ID Width Length Bearing (true/mag) Surface Threshold Overrun Markings Lighting
09 75 ft / 23 m 5,912 ft / 1,802 m 106.65° / 93.81° ASPHALT 0 ft / 0 m 0 ft / 0 m APP EDGE THRESHOLD
27 75 ft / 23 m 5,912 ft / 1,802 m 286.67° / 273.82° ASPHALT 0 ft / 0 m 0 ft / 0 m APP EDGE THRESHOLD

Map

Weather


0- 5 10 15 20 25 30 35+ Temperature / °C

Clouds and Precipitation
Forecast for 2022-10-02 12:00 UTC. Updated an hour ago

Ground ~20,000 ft ~40,000 ft Winds

METAR

KCXP 021035Z AUTO 00000KT 10SM CLR 07/M00 A3008 RMK AO2

TAF

TAF KCXP 020520Z 0206/0306 VRB03KT P6SM SKC FM021900 06011KT P6SM SKC FM030300 VRB03KT P6SM SKC

Frequencies

Unicom 123.00 MHz CTAF/UNICOM
Recorded 119.92 MHz AWOS 3
Warning: Do not use this data for real-world aviation or navigation. No guarantee of current accuracy is given.